Time;durP1;ratioP1;P1;durP2;ratioP2;P2;SDS_P1;SDS_P2;PMS_P1;PMS_P2;Temp;Humidity;BMP_temperature;BMP_pressure;BME280_temperature;BME280_humidity;BME280_pressure;Samples;Min_cycle;Max_cycle;Signal;HPM_P1;HPM_P2
2023/01/31 00:00:29;;;;;;;;;;;-0.40;82.30;;;;;;5005280;28;82426;-38
2023/01/31 00:02:55;;;;;;;;;;;-0.40;82.20;;;;;;5004619;28;83053;-38
2023/01/31 00:05:20;;;;;;;;;;;-0.40;82.10;;;;;;5004986;28;82038;-38
2023/01/31 00:07:46;;;;;;;;;;;-0.40;82.10;;;;;;5005007;28;84143;-38
2023/01/31 00:10:12;;;;;;;;;;;-0.40;82.20;;;;;;5005584;28;82245;-38
2023/01/31 00:12:37;;;;;;;;;;;-0.40;82.30;;;;;;5005011;28;81891;-38
2023/01/31 00:15:03;;;;;;;;;;;-0.30;82.10;;;;;;5007544;28;81968;-38
2023/01/31 00:17:29;;;;;;;;;;;-0.30;82.00;;;;;;5004672;28;83002;-38
2023/01/31 00:19:54;;;;;;;;;;;-0.30;82.10;;;;;;5005054;28;83663;-38
2023/01/31 00:22:20;;;;;;;;;;;-0.30;82.20;;;;;;5004998;28;83883;-38
2023/01/31 00:24:45;;;;;;;;;;;-0.30;81.80;;;;;;5005177;28;82022;-38
2023/01/31 00:27:11;;;;;;;;;;;-0.30;82.00;;;;;;5006851;28;82255;-38
2023/01/31 00:29:36;;;;;;;;;;;-0.40;82.00;;;;;;5007970;28;83059;-38
2023/01/31 00:32:02;;;;;;;;;;;-0.30;82.10;;;;;;5008451;28;82084;-38
2023/01/31 00:34:28;;;;;;;;;;;-0.40;82.10;;;;;;5008487;28;83767;-38
2023/01/31 00:36:53;;;;;;;;;;;-0.40;82.20;;;;;;5011040;28;83093;-38
2023/01/31 00:39:19;;;;;;;;;;;-0.40;82.20;;;;;;5008358;28;82478;-38
2023/01/31 00:41:45;;;;;;;;;;;-0.40;82.10;;;;;;5007192;28;85470;-38
2023/01/31 00:44:10;;;;;;;;;;;-0.30;82.10;;;;;;5008070;28;82176;-38
2023/01/31 00:46:36;;;;;;;;;;;-0.30;81.80;;;;;;5008056;28;82506;-38
2023/01/31 00:49:01;;;;;;;;;;;-0.40;82.00;;;;;;5007786;28;82264;-38
2023/01/31 00:51:27;;;;;;;;;;;-0.40;82.20;;;;;;5007826;28;82061;-38
2023/01/31 00:53:52;;;;;;;;;;;-0.40;82.20;;;;;;5008089;28;82786;-38
2023/01/31 00:56:19;;;;;;;;;;;-0.40;82.10;;;;;;5008052;28;82352;-38
2023/01/31 00:58:45;;;;;;;;;;;-0.40;82.10;;;;;;5010796;28;81194;-38
2023/01/31 01:01:11;;;;;;;;;;;-0.40;82.20;;;;;;5007027;28;83299;-38
2023/01/31 01:03:38;;;;;;;;;;;-0.40;82.00;;;;;;5007340;28;82092;-37
2023/01/31 01:06:03;;;;;;;;;;;-0.40;82.20;;;;;;5007195;28;82841;-37
2023/01/31 01:08:29;;;;;;;;;;;-0.40;82.20;;;;;;5007319;28;84563;-37
2023/01/31 01:10:55;;;;;;;;;;;-0.40;82.20;;;;;;5007906;28;82062;-37
2023/01/31 01:13:21;;;;;;;;;;;-0.40;82.20;;;;;;5007608;28;82502;-38
2023/01/31 01:15:46;;;;;;;;;;;-0.40;82.10;;;;;;5007483;28;83039;-38
2023/01/31 01:18:12;;;;;;;;;;;-0.40;82.10;;;;;;5010510;28;82164;-38
2023/01/31 01:20:37;;;;;;;;;;;-0.40;82.20;;;;;;5007549;28;83109;-38
2023/01/31 01:23:03;;;;;;;;;;;-0.40;82.20;;;;;;5008162;28;81394;-38
2023/01/31 01:25:29;;;;;;;;;;;-0.40;82.30;;;;;;5007430;28;81990;-38
2023/01/31 01:27:54;;;;;;;;;;;-0.40;82.10;;;;;;5007172;28;82664;-38
2023/01/31 01:30:20;;;;;;;;;;;-0.40;82.20;;;;;;5006946;28;82886;-38
2023/01/31 01:32:46;;;;;;;;;;;-0.40;82.20;;;;;;5007237;28;84721;-37
2023/01/31 01:35:11;;;;;;;;;;;-0.40;82.10;;;;;;5007273;28;82952;-38
2023/01/31 01:37:37;;;;;;;;;;;-0.40;82.20;;;;;;5007470;28;82068;-38
2023/01/31 01:40:03;;;;;;;;;;;-0.40;82.10;;;;;;5009768;28;82038;-38
2023/01/31 01:42:32;;;;;;;;;;;-0.40;82.10;;;;;;5007155;28;82072;-38
2023/01/31 01:44:58;;;;;;;;;;;-0.40;82.10;;;;;;5006872;28;83012;-37
2023/01/31 01:47:33;;;;;;;;;;;-0.40;82.00;;;;;;5007553;28;82062;-38
2023/01/31 01:50:04;;;;;;;;;;;-0.50;82.10;;;;;;5007300;28;82050;-38
2023/01/31 01:52:30;;;;;;;;;;;-0.50;82.30;;;;;;5007097;28;82276;-38
2023/01/31 01:54:58;;;;;;;;;;;-0.40;82.10;;;;;;5006267;28;83946;-38
2023/01/31 01:57:29;;;;;;;;;;;-0.40;82.30;;;;;;5006843;28;82070;-38
2023/01/31 02:00:03;;;;;;;;;;;-0.40;82.10;;;;;;5007260;28;82685;-38
2023/01/31 02:02:28;;;;;;;;;;;-0.50;82.10;;;;;;5008863;28;83331;-37
2023/01/31 02:04:54;;;;;;;;;;;-0.50;82.10;;;;;;5006934;28;82413;-37
2023/01/31 02:07:19;;;;;;;;;;;-0.40;82.00;;;;;;5006487;28;84524;-37
2023/01/31 02:09:45;;;;;;;;;;;-0.50;82.10;;;;;;5006681;28;82105;-37
2023/01/31 02:12:11;;;;;;;;;;;-0.50;82.30;;;;;;5006982;28;83875;-37
2023/01/31 02:14:36;;;;;;;;;;;-0.50;82.30;;;;;;5006654;28;83158;-38
2023/01/31 02:17:02;;;;;;;;;;;-0.50;82.00;;;;;;5006905;28;82086;-38
2023/01/31 02:19:32;;;;;;;;;;;-0.50;82.20;;;;;;5006396;28;84215;-38
2023/01/31 02:22:09;;;;;;;;;;;-0.40;82.00;;;;;;5006457;28;83240;-38
2023/01/31 02:25:01;;;;;;;;;;;-0.50;82.20;;;;;;5009111;28;82141;-38
2023/01/31 02:27:45;;;;;;;;;;;-0.50;82.10;;;;;;4967287;28;82118;-38
2023/01/31 02:30:26;;;;;;;;;;;-0.50;82.20;;;;;;5006580;28;81959;-38
2023/01/31 02:33:00;;;;;;;;;;;-0.50;82.00;;;;;;5006514;28;82365;-38
2023/01/31 02:35:37;;;;;;;;;;;-0.50;82.20;;;;;;5006368;28;82207;-38
2023/01/31 02:38:26;;;;;;;;;;;-0.50;82.20;;;;;;5007185;28;81188;-38
2023/01/31 02:40:57;;;;;;;;;;;-0.50;82.20;;;;;;4992796;28;82000;-38
2023/01/31 02:43:31;;;;;;;;;;;-0.50;82.20;;;;;;5005875;28;83061;-38
2023/01/31 02:46:09;;;;;;;;;;;-0.50;82.10;;;;;;5006164;28;82882;-38
2023/01/31 02:48:43;;;;;;;;;;;-0.50;82.20;;;;;;5008625;28;83339;-38
2023/01/31 02:51:23;;;;;;;;;;;-0.50;82.20;;;;;;5005924;28;81997;-38
2023/01/31 02:53:52;;;;;;;;;;;-0.50;82.10;;;;;;5005698;28;81926;-38
2023/01/31 02:56:22;;;;;;;;;;;-0.50;82.20;;;;;;5006045;28;82446;-38
2023/01/31 02:58:55;;;;;;;;;;;-0.50;82.20;;;;;;5005818;28;82073;-38
2023/01/31 03:01:27;;;;;;;;;;;-0.50;82.20;;;;;;5005381;28;82705;-37
2023/01/31 03:03:56;;;;;;;;;;;-0.50;82.20;;;;;;5005884;28;83806;-38
2023/01/31 03:06:24;;;;;;;;;;;-0.50;82.20;;;;;;5005647;28;81791;-38
2023/01/31 03:08:52;;;;;;;;;;;-0.50;82.20;;;;;;5008304;28;84161;-38
2023/01/31 03:11:18;;;;;;;;;;;-0.50;82.40;;;;;;5005265;28;83094;-38
2023/01/31 03:13:50;;;;;;;;;;;-0.50;82.10;;;;;;5005708;28;83884;-38
2023/01/31 03:19:27;;;;;;;;;;;-0.50;82.20;;;;;;5006061;28;81877;-38
2023/01/31 03:21:59;;;;;;;;;;;-0.50;82.20;;;;;;5005635;28;82984;-38
2023/01/31 03:24:27;;;;;;;;;;;-0.50;82.20;;;;;;5005548;28;83205;-38
2023/01/31 03:26:54;;;;;;;;;;;-0.50;82.40;;;;;;5005744;28;82213;-38
2023/01/31 03:29:21;;;;;;;;;;;-0.50;82.20;;;;;;5005788;28;83392;-38
2023/01/31 03:32:05;;;;;;;;;;;-0.50;82.30;;;;;;5008189;28;84589;-38
2023/01/31 03:34:30;;;;;;;;;;;-0.50;82.20;;;;;;5005823;28;82343;-38
2023/01/31 03:37:02;;;;;;;;;;;-0.50;82.10;;;;;;5005031;28;84024;-38
2023/01/31 03:39:33;;;;;;;;;;;-0.50;82.20;;;;;;5005903;28;81988;-38
2023/01/31 03:42:01;;;;;;;;;;;-0.50;82.20;;;;;;5005362;28;83910;-37
2023/01/31 03:44:34;;;;;;;;;;;-0.60;82.30;;;;;;5005117;28;84316;-38
2023/01/31 03:47:03;;;;;;;;;;;-0.50;82.10;;;;;;5005712;28;82063;-38
2023/01/31 03:49:30;;;;;;;;;;;-0.50;82.70;;;;;;5005547;28;82132;-38
2023/01/31 03:51:59;;;;;;;;;;;-0.50;82.10;;;;;;5005481;28;83047;-38
2023/01/31 03:54:27;;;;;;;;;;;-0.50;82.20;;;;;;5008247;28;81378;-38
2023/01/31 03:56:56;;;;;;;;;;;-0.50;82.10;;;;;;5005122;28;82938;-38
2023/01/31 03:59:25;;;;;;;;;;;-0.60;82.00;;;;;;5005235;28;81946;-38
2023/01/31 04:01:52;;;;;;;;;;;-0.60;82.20;;;;;;5005369;28;82800;-38
2023/01/31 04:04:41;;;;;;;;;;;-0.50;82.10;;;;;;5008225;28;83102;-38
2023/01/31 04:07:06;;;;;;;;;;;-0.50;82.20;;;;;;4961343;28;82052;-38
2023/01/31 04:09:32;;;;;;;;;;;-0.60;82.10;;;;;;5008864;28;82036;-38
2023/01/31 04:11:58;;;;;;;;;;;-0.50;82.10;;;;;;5008476;28;83019;-38
2023/01/31 04:14:24;;;;;;;;;;;-0.60;82.20;;;;;;5008654;28;81859;-38
2023/01/31 04:16:49;;;;;;;;;;;-0.60;82.20;;;;;;5011133;28;82767;-38
2023/01/31 04:19:15;;;;;;;;;;;-0.50;82.10;;;;;;5009068;28;81385;-38
2023/01/31 04:21:40;;;;;;;;;;;-0.60;82.10;;;;;;5008816;28;81889;-38
2023/01/31 04:24:08;;;;;;;;;;;-0.60;82.10;;;;;;5008300;28;83018;-38
2023/01/31 04:26:33;;;;;;;;;;;-0.60;82.10;;;;;;5007579;28;83164;-38
2023/01/31 04:28:59;;;;;;;;;;;-0.60;82.10;;;;;;5008345;28;83184;-38
2023/01/31 04:31:24;;;;;;;;;;;-0.50;82.10;;;;;;5008287;28;83161;-38
2023/01/31 04:33:50;;;;;;;;;;;-0.50;82.00;;;;;;5008371;28;81958;-38
2023/01/31 04:36:15;;;;;;;;;;;-0.60;82.40;;;;;;5008181;28;82613;-38
2023/01/31 04:38:41;;;;;;;;;;;-0.60;82.20;;;;;;5010956;28;83083;-38
2023/01/31 04:41:07;;;;;;;;;;;-0.60;82.10;;;;;;5008505;28;83233;-38
2023/01/31 04:43:32;;;;;;;;;;;-0.60;82.10;;;;;;5008687;28;82043;-38
2023/01/31 04:45:58;;;;;;;;;;;-0.60;82.30;;;;;;5008070;28;82079;-38
2023/01/31 04:48:23;;;;;;;;;;;-0.50;82.10;;;;;;5008379;28;82205;-38
2023/01/31 04:50:49;;;;;;;;;;;-0.60;82.20;;;;;;5006859;28;83893;-38
2023/01/31 04:53:14;;;;;;;;;;;-0.60;82.10;;;;;;5008224;28;82037;-38
2023/01/31 04:55:40;;;;;;;;;;;-0.60;82.10;;;;;;5008005;28;82656;-38
2023/01/31 04:58:05;;;;;;;;;;;-0.60;82.10;;;;;;5008009;28;83015;-38
2023/01/31 05:00:31;;;;;;;;;;;-0.60;82.30;;;;;;5010741;28;82467;-38
2023/01/31 05:02:56;;;;;;;;;;;-0.60;82.20;;;;;;5007037;28;82344;-38
2023/01/31 05:05:22;;;;;;;;;;;-0.60;82.10;;;;;;5007746;28;82084;-37
2023/01/31 05:07:47;;;;;;;;;;;-0.60;82.40;;;;;;5008385;28;81624;-38
2023/01/31 05:10:13;;;;;;;;;;;-0.60;82.00;;;;;;5007508;28;83164;-38
2023/01/31 05:12:38;;;;;;;;;;;-0.60;82.10;;;;;;5007413;28;82114;-38
2023/01/31 05:15:06;;;;;;;;;;;-0.60;82.20;;;;;;5007342;28;83347;-38
2023/01/31 05:17:31;;;;;;;;;;;-0.60;82.30;;;;;;5007288;28;84277;-38
2023/01/31 05:19:57;;;;;;;;;;;-0.60;82.20;;;;;;5009979;28;82442;-38
2023/01/31 05:22:23;;;;;;;;;;;-0.60;82.20;;;;;;5007521;28;82999;-38
2023/01/31 05:24:49;;;;;;;;;;;-0.60;82.20;;;;;;5007525;28;82326;-38
2023/01/31 05:27:15;;;;;;;;;;;-0.60;82.30;;;;;;5007714;28;82462;-38
2023/01/31 05:29:41;;;;;;;;;;;-0.60;82.30;;;;;;5007438;28;81963;-38
2023/01/31 05:32:07;;;;;;;;;;;-0.60;82.10;;;;;;5007846;28;81366;-38
2023/01/31 05:34:33;;;;;;;;;;;-0.70;82.20;;;;;;5007393;28;82070;-38
2023/01/31 05:36:59;;;;;;;;;;;-0.60;82.30;;;;;;5007042;28;82978;-38
2023/01/31 05:39:24;;;;;;;;;;;-0.60;82.50;;;;;;5006296;28;83028;-38
2023/01/31 05:41:51;;;;;;;;;;;-0.60;82.40;;;;;;5009807;28;83521;-38
2023/01/31 05:44:17;;;;;;;;;;;-0.60;82.40;;;;;;5006936;28;81992;-38
2023/01/31 05:46:43;;;;;;;;;;;-0.60;82.20;;;;;;5006951;28;83962;-38
2023/01/31 05:49:09;;;;;;;;;;;-0.60;82.20;;;;;;5006987;28;82960;-38
2023/01/31 05:51:34;;;;;;;;;;;-0.60;82.20;;;;;;5007017;28;82132;-38
2023/01/31 05:54:00;;;;;;;;;;;-0.60;82.30;;;;;;5007225;28;82449;-38
2023/01/31 05:56:26;;;;;;;;;;;-0.60;82.30;;;;;;5007047;28;84201;-38
2023/01/31 05:58:51;;;;;;;;;;;-0.60;82.30;;;;;;5006996;28;82203;-38
2023/01/31 06:01:17;;;;;;;;;;;-0.60;82.20;;;;;;5006766;28;82506;-38
2023/01/31 06:03:43;;;;;;;;;;;-0.60;82.20;;;;;;5008902;28;83992;-38
2023/01/31 06:06:08;;;;;;;;;;;-0.60;82.40;;;;;;5006723;28;83277;-38
2023/01/31 06:08:34;;;;;;;;;;;-0.60;82.30;;;;;;5006799;28;82991;-38
2023/01/31 06:11:05;;;;;;;;;;;-0.60;82.60;;;;;;5006806;28;81982;-38
2023/01/31 06:13:31;;;;;;;;;;;-0.60;82.30;;;;;;5006575;28;83982;-37
2023/01/31 06:15:57;;;;;;;;;;;-0.60;82.40;;;;;;5006453;28;83536;-38
2023/01/31 06:18:23;;;;;;;;;;;-0.60;82.20;;;;;;5006823;28;82073;-38
2023/01/31 06:20:49;;;;;;;;;;;-0.70;82.40;;;;;;5006816;28;84077;-38
2023/01/31 06:23:15;;;;;;;;;;;-0.70;82.40;;;;;;5006528;28;83223;-38
2023/01/31 06:25:40;;;;;;;;;;;-0.60;82.50;;;;;;4990521;28;82133;-38
2023/01/31 06:28:05;;;;;;;;;;;-0.70;82.40;;;;;;5005724;28;84040;-38
2023/01/31 06:30:31;;;;;;;;;;;-0.60;82.40;;;;;;5006642;28;82361;-38
2023/01/31 06:33:00;;;;;;;;;;;-0.60;82.50;;;;;;5006700;28;82072;-38
2023/01/31 06:35:25;;;;;;;;;;;-0.60;82.40;;;;;;5005846;28;84570;-38
2023/01/31 06:37:51;;;;;;;;;;;-0.70;82.50;;;;;;5006604;28;82150;-38
2023/01/31 06:40:16;;;;;;;;;;;-0.70;82.50;;;;;;5006388;28;82424;-37
2023/01/31 06:42:42;;;;;;;;;;;-0.70;82.60;;;;;;5006470;28;82428;-38
2023/01/31 06:45:08;;;;;;;;;;;-0.70;82.50;;;;;;5006900;28;81375;-38
2023/01/31 06:47:33;;;;;;;;;;;-0.60;82.70;;;;;;5008865;28;83552;-38
2023/01/31 06:49:59;;;;;;;;;;;-0.60;82.30;;;;;;5006122;28;82104;-38
2023/01/31 06:52:24;;;;;;;;;;;-0.70;82.50;;;;;;5005767;28;83635;-38
2023/01/31 06:54:50;;;;;;;;;;;-0.70;82.80;;;;;;5006326;28;82802;-37
2023/01/31 06:57:15;;;;;;;;;;;-0.70;82.60;;;;;;5006187;28;82082;-37
2023/01/31 06:59:41;;;;;;;;;;;-0.60;82.50;;;;;;5006405;28;82600;-37
2023/01/31 07:02:08;;;;;;;;;;;-0.70;82.50;;;;;;5005761;28;82969;-37
2023/01/31 07:04:33;;;;;;;;;;;-0.70;82.60;;;;;;5005493;28;82102;-38
2023/01/31 07:06:59;;;;;;;;;;;-0.60;82.50;;;;;;5006011;28;82026;-38
2023/01/31 07:09:24;;;;;;;;;;;-0.70;82.70;;;;;;5008949;28;82194;-38
2023/01/31 07:11:50;;;;;;;;;;;-0.70;82.70;;;;;;5005962;28;81846;-38
2023/01/31 07:14:15;;;;;;;;;;;-0.70;82.70;;;;;;5005914;28;83451;-38
2023/01/31 07:16:40;;;;;;;;;;;-0.70;82.80;;;;;;5005366;28;83040;-38
2023/01/31 07:19:06;;;;;;;;;;;-0.70;82.70;;;;;;5005780;28;82519;-38
2023/01/31 07:21:32;;;;;;;;;;;-0.60;82.60;;;;;;5005559;28;84677;-37
2023/01/31 07:23:57;;;;;;;;;;;-0.70;82.70;;;;;;5005637;28;82047;-37
2023/01/31 07:26:23;;;;;;;;;;;-0.70;82.70;;;;;;5005890;28;82584;-37
2023/01/31 07:28:48;;;;;;;;;;;-0.70;82.60;;;;;;5008391;28;83198;-38
2023/01/31 07:31:14;;;;;;;;;;;-0.70;82.80;;;;;;5006004;28;82421;-38
2023/01/31 07:33:40;;;;;;;;;;;-0.70;82.90;;;;;;5005896;28;83718;-37
2023/01/31 07:36:06;;;;;;;;;;;-0.70;82.90;;;;;;5007125;28;81948;-37
2023/01/31 07:38:32;;;;;;;;;;;-0.70;82.70;;;;;;5008956;28;83606;-38
2023/01/31 07:40:58;;;;;;;;;;;-0.70;82.70;;;;;;5008422;28;84227;-38
2023/01/31 07:43:24;;;;;;;;;;;-0.70;83.10;;;;;;5009003;28;82115;-37
2023/01/31 07:45:49;;;;;;;;;;;-0.80;82.90;;;;;;5008985;28;82396;-38
2023/01/31 07:48:15;;;;;;;;;;;-0.70;82.90;;;;;;5009016;28;83130;-38
2023/01/31 07:50:40;;;;;;;;;;;-0.80;83.10;;;;;;5011618;28;81915;-38
2023/01/31 07:53:06;;;;;;;;;;;-0.70;83.00;;;;;;5008897;28;82098;-38
2023/01/31 07:55:31;;;;;;;;;;;-0.70;83.10;;;;;;5008949;28;82097;-38
2023/01/31 07:57:57;;;;;;;;;;;-0.80;83.10;;;;;;5009491;28;82418;-38
2023/01/31 08:03:33;;;;;;;;;;;-0.70;83.10;;;;;;5008101;28;81972;-38
2023/01/31 08:06:07;;;;;;;;;;;-0.70;83.10;;;;;;5008305;28;82823;-38
2023/01/31 08:08:32;;;;;;;;;;;-0.70;83.00;;;;;;5008619;28;81950;-38
2023/01/31 08:10:58;;;;;;;;;;;-0.70;82.80;;;;;;5008662;28;81930;-38
2023/01/31 08:13:25;;;;;;;;;;;-0.70;83.10;;;;;;5011492;28;82430;-38
2023/01/31 08:15:51;;;;;;;;;;;-0.70;83.00;;;;;;5008489;28;82076;-37
2023/01/31 08:18:17;;;;;;;;;;;-0.60;82.90;;;;;;5008704;28;82424;-38
2023/01/31 08:20:43;;;;;;;;;;;-0.70;82.90;;;;;;5004630;28;88237;-38
2023/01/31 08:23:08;;;;;;;;;;;-0.70;82.90;;;;;;5005802;28;86178;-38
2023/01/31 08:25:35;;;;;;;;;;;-0.70;83.00;;;;;;5004906;28;88198;-38
2023/01/31 08:28:01;;;;;;;;;;;-0.70;83.20;;;;;;5004555;28;89842;-38
2023/01/31 08:30:27;;;;;;;;;;;-0.70;83.60;;;;;;5004263;28;88078;-37
2023/01/31 08:32:52;;;;;;;;;;;-0.70;83.10;;;;;;5005166;28;88353;-38
2023/01/31 08:35:17;;;;;;;;;;;-0.70;83.00;;;;;;4989472;28;91419;-37
2023/01/31 08:37:43;;;;;;;;;;;-0.70;83.00;;;;;;5005001;28;87294;-37
2023/01/31 08:40:09;;;;;;;;;;;-0.70;83.30;;;;;;5004655;28;87483;-38
2023/01/31 08:42:34;;;;;;;;;;;-0.80;83.30;;;;;;5004552;28;86996;-37
2023/01/31 08:45:00;;;;;;;;;;;-0.80;83.50;;;;;;5004720;28;87337;-37
2023/01/31 08:47:25;;;;;;;;;;;-0.80;83.50;;;;;;5004094;28;87423;-37
2023/01/31 08:49:51;;;;;;;;;;;-0.80;83.50;;;;;;5004878;28;87114;-37
2023/01/31 08:52:16;;;;;;;;;;;-0.70;83.30;;;;;;5004782;28;87456;-37
2023/01/31 08:54:42;;;;;;;;;;;-0.80;83.60;;;;;;5003491;28;90421;-37
2023/01/31 08:57:07;;;;;;;;;;;-0.70;83.40;;;;;;5007573;28;87209;-38
2023/01/31 08:59:33;;;;;;;;;;;-0.80;83.30;;;;;;5004386;28;88116;-38
2023/01/31 09:01:58;;;;;;;;;;;-0.70;83.40;;;;;;5004236;28;87135;-38
2023/01/31 09:04:23;;;;;;;;;;;-0.70;83.50;;;;;;5004124;28;87508;-38
2023/01/31 09:06:49;;;;;;;;;;;-0.80;83.60;;;;;;5004292;28;87274;-38
2023/01/31 09:09:14;;;;;;;;;;;-0.70;83.80;;;;;;5004439;28;87162;-38
2023/01/31 09:11:40;;;;;;;;;;;-0.70;83.50;;;;;;5004948;28;87376;-38
2023/01/31 09:14:05;;;;;;;;;;;-0.70;83.30;;;;;;5003985;28;87314;-38
2023/01/31 09:16:31;;;;;;;;;;;-0.60;83.30;;;;;;5004429;28;87084;-38
2023/01/31 09:18:56;;;;;;;;;;;-0.60;83.00;;;;;;5006283;28;87998;-38
2023/01/31 09:21:23;;;;;;;;;;;-0.60;83.20;;;;;;5004558;28;87606;-38
2023/01/31 09:23:53;;;;;;;;;;;-0.70;83.30;;;;;;5004180;28;87075;-37
2023/01/31 09:26:18;;;;;;;;;;;-0.60;83.30;;;;;;5003575;28;88103;-38
2023/01/31 09:28:44;;;;;;;;;;;-0.60;83.30;;;;;;5004291;28;87322;-38
2023/01/31 09:31:12;;;;;;;;;;;-0.60;83.40;;;;;;5003869;28;88885;-38
2023/01/31 09:33:37;;;;;;;;;;;-0.60;83.60;;;;;;5003478;28;89224;-38
2023/01/31 09:36:07;;;;;;;;;;;-0.60;83.70;;;;;;5004699;28;86289;-37
2023/01/31 09:38:33;;;;;;;;;;;-0.70;83.90;;;;;;5006339;28;87035;-37
2023/01/31 09:41:00;;;;;;;;;;;-0.60;83.80;;;;;;5003758;28;87210;-37
2023/01/31 09:43:27;;;;;;;;;;;-0.60;83.90;;;;;;5003732;28;88999;-37
2023/01/31 09:45:55;;;;;;;;;;;-0.70;84.10;;;;;;5003423;28;87757;-37
2023/01/31 09:48:23;;;;;;;;;;;-0.70;84.20;;;;;;5004055;28;86900;-37
2023/01/31 09:50:48;;;;;;;;;;;-0.70;84.30;;;;;;5003840;28;87505;-37
2023/01/31 09:53:20;;;;;;;;;;;-0.60;83.80;;;;;;5003606;28;88018;-37
2023/01/31 09:56:04;;;;;;;;;;;-0.50;83.70;;;;;;5003653;28;87090;-37
2023/01/31 09:58:30;;;;;;;;;;;-0.60;83.70;;;;;;5003738;28;87333;-37
2023/01/31 10:01:04;;;;;;;;;;;-0.60;83.80;;;;;;5006758;28;87281;-37
2023/01/31 10:04:08;;;;;;;;;;;-0.50;83.60;;;;;;5003325;28;86959;-37
2023/01/31 10:06:46;;;;;;;;;;;-0.60;83.80;;;;;;4902873;28;88081;-37
2023/01/31 10:09:18;;;;;;;;;;;-0.60;84.30;;;;;;4903226;28;88073;-37
2023/01/31 10:11:48;;;;;;;;;;;-0.60;84.60;;;;;;4961291;28;87683;-37
2023/01/31 10:14:30;;;;;;;;;;;-0.70;84.60;;;;;;5003019;28;87815;-37
2023/01/31 10:17:05;;;;;;;;;;;-0.70;84.70;;;;;;5003352;28;87109;-37
2023/01/31 10:19:35;;;;;;;;;;;-0.70;84.70;;;;;;5003017;28;88741;-37
2023/01/31 10:22:04;;;;;;;;;;;-0.70;84.90;;;;;;5002915;28;89392;-37
2023/01/31 10:24:37;;;;;;;;;;;-0.80;85.00;;;;;;5006041;28;87055;-37
2023/01/31 10:27:05;;;;;;;;;;;-0.80;85.10;;;;;;5003175;28;87387;-38
2023/01/31 10:29:33;;;;;;;;;;;-0.70;85.20;;;;;;5003024;28;87006;-38
2023/01/31 10:32:04;;;;;;;;;;;-0.70;85.30;;;;;;5003140;28;87423;-38
2023/01/31 10:34:33;;;;;;;;;;;-0.70;85.90;;;;;;5002005;28;88858;-38
2023/01/31 10:37:01;;;;;;;;;;;-0.80;85.10;;;;;;5003154;28;87091;-38
2023/01/31 10:39:30;;;;;;;;;;;-0.70;85.30;;;;;;5003099;28;87050;-38
2023/01/31 10:42:01;;;;;;;;;;;-0.70;85.10;;;;;;5002448;28;87998;-38
2023/01/31 10:44:35;;;;;;;;;;;-0.70;85.10;;;;;;5003081;28;87073;-38
2023/01/31 10:47:00;;;;;;;;;;;-0.70;85.00;;;;;;5005595;28;86947;-38
2023/01/31 10:49:27;;;;;;;;;;;-0.60;85.20;;;;;;5003018;28;87039;-37
2023/01/31 10:52:03;;;;;;;;;;;-0.60;85.10;;;;;;5003398;28;87454;-37
2023/01/31 10:54:42;;;;;;;;;;;-0.60;85.10;;;;;;5002308;28;89502;-37
2023/01/31 10:57:08;;;;;;;;;;;-0.60;85.00;;;;;;5003008;28;86976;-37
2023/01/31 10:59:35;;;;;;;;;;;-0.60;85.10;;;;;;5002340;28;87837;-37
2023/01/31 11:02:03;;;;;;;;;;;-0.60;85.20;;;;;;5002079;28;88024;-38
2023/01/31 11:04:29;;;;;;;;;;;-0.60;85.30;;;;;;5002425;28;87138;-38
2023/01/31 11:06:56;;;;;;;;;;;-0.60;85.50;;;;;;5002639;28;87411;-38
2023/01/31 11:09:22;;;;;;;;;;;-0.60;85.50;;;;;;5005022;28;88144;-38
2023/01/31 11:11:55;;;;;;;;;;;-0.60;85.50;;;;;;5001984;28;87430;-38
2023/01/31 11:14:21;;;;;;;;;;;-0.60;85.50;;;;;;5002196;28;88092;-38
2023/01/31 11:16:47;;;;;;;;;;;-0.60;85.50;;;;;;5003336;28;86824;-37
2023/01/31 11:19:39;;;;;;;;;;;-0.60;85.60;;;;;;5002407;28;88304;-37
2023/01/31 11:22:06;;;;;;;;;;;-0.60;85.70;;;;;;4997142;28;89347;-37
2023/01/31 11:24:32;;;;;;;;;;;-0.60;85.70;;;;;;5001880;28;87815;-37
2023/01/31 11:27:13;;;;;;;;;;;-0.60;85.80;;;;;;5002574;28;88600;-38
2023/01/31 11:29:40;;;;;;;;;;;-0.60;85.70;;;;;;5001880;28;88277;-38
2023/01/31 11:32:11;;;;;;;;;;;-0.60;85.70;;;;;;5004790;28;87080;-38
2023/01/31 11:34:37;;;;;;;;;;;-0.60;85.80;;;;;;5002161;28;87252;-38
2023/01/31 11:37:13;;;;;;;;;;;-0.60;85.90;;;;;;5002230;28;87076;-37
2023/01/31 11:39:38;;;;;;;;;;;-0.60;86.00;;;;;;5002314;28;87464;-38
2023/01/31 11:42:05;;;;;;;;;;;-0.60;85.90;;;;;;5002487;28;87255;-38
2023/01/31 11:44:31;;;;;;;;;;;-0.60;86.00;;;;;;5002195;28;87178;-38
2023/01/31 11:46:58;;;;;;;;;;;-0.60;86.00;;;;;;5001989;28;87424;-38
2023/01/31 11:49:29;;;;;;;;;;;-0.60;85.90;;;;;;5000865;28;89544;-38
2023/01/31 11:51:56;;;;;;;;;;;-0.60;85.90;;;;;;5005023;28;87086;-38
2023/01/31 11:54:27;;;;;;;;;;;-0.60;86.10;;;;;;5001742;28;88078;-38
2023/01/31 11:56:54;;;;;;;;;;;-0.60;86.10;;;;;;5002067;28;87089;-38
2023/01/31 11:59:21;;;;;;;;;;;-0.60;86.10;;;;;;5001762;28;86996;-38
2023/01/31 12:01:51;;;;;;;;;;;-0.60;86.00;;;;;;5001124;28;89784;-38
2023/01/31 12:04:19;;;;;;;;;;;-0.60;86.00;;;;;;5001508;28;87155;-38
2023/01/31 12:06:55;;;;;;;;;;;-0.60;86.20;;;;;;5002629;28;87429;-38
2023/01/31 12:09:22;;;;;;;;;;;-0.60;86.20;;;;;;5001819;28;88397;-38
2023/01/31 12:11:49;;;;;;;;;;;-0.60;86.20;;;;;;5001826;28;87111;-38
2023/01/31 12:14:16;;;;;;;;;;;-0.60;86.30;;;;;;5003552;28;88584;-38
2023/01/31 12:16:43;;;;;;;;;;;-0.60;86.20;;;;;;5001507;28;87947;-38
2023/01/31 12:19:11;;;;;;;;;;;-0.60;86.20;;;;;;5001738;28;87427;-38
2023/01/31 12:21:36;;;;;;;;;;;-0.60;86.20;;;;;;5001587;28;87992;-38
2023/01/31 12:24:11;;;;;;;;;;;-0.60;86.30;;;;;;5004672;28;87291;-38
2023/01/31 12:26:57;;;;;;;;;;;-0.60;86.20;;;;;;5004746;28;88576;-38
2023/01/31 12:29:41;;;;;;;;;;;-0.60;86.20;;;;;;5003840;28;88185;-38
2023/01/31 12:32:27;;;;;;;;;;;-0.60;87.00;;;;;;5005665;28;86476;-38
2023/01/31 12:34:56;;;;;;;;;;;-0.60;86.30;;;;;;5005061;28;87539;-37
2023/01/31 12:37:24;;;;;;;;;;;-0.60;86.40;;;;;;5007781;28;87416;-38
2023/01/31 12:40:07;;;;;;;;;;;-0.60;86.40;;;;;;5004294;28;87766;-38
2023/01/31 12:42:39;;;;;;;;;;;-0.60;86.40;;;;;;5004622;28;87719;-38
2023/01/31 12:45:05;;;;;;;;;;;-0.60;86.40;;;;;;5004870;28;87118;-38
2023/01/31 12:47:39;;;;;;;;;;;-0.60;86.40;;;;;;5004507;28;88752;-38
2023/01/31 12:50:08;;;;;;;;;;;-0.60;86.40;;;;;;5004579;28;88056;-38
2023/01/31 12:52:46;;;;;;;;;;;-0.60;86.40;;;;;;5004929;28;87134;-38
2023/01/31 12:55:14;;;;;;;;;;;-0.60;86.40;;;;;;5004682;28;87276;-38
2023/01/31 12:57:40;;;;;;;;;;;-0.50;86.40;;;;;;5004608;28;88665;-38
2023/01/31 13:00:07;;;;;;;;;;;-0.50;86.40;;;;;;5007401;28;86902;-38
2023/01/31 13:02:41;;;;;;;;;;;-0.50;86.40;;;;;;5003905;28;87184;-38
2023/01/31 13:05:06;;;;;;;;;;;-0.50;86.30;;;;;;5003562;28;88098;-38
2023/01/31 13:07:37;;;;;;;;;;;-0.50;86.40;;;;;;5004662;28;88303;-38
2023/01/31 13:10:04;;;;;;;;;;;-0.50;86.40;;;;;;5003743;28;88368;-38
2023/01/31 13:12:31;;;;;;;;;;;-0.50;86.40;;;;;;5004149;28;87095;-39
2023/01/31 13:15:04;;;;;;;;;;;-0.50;86.30;;;;;;5004170;28;88767;-40
2023/01/31 13:17:31;;;;;;;;;;;-0.40;86.00;;;;;;5004085;28;87508;-38
2023/01/31 13:19:59;;;;;;;;;;;-0.40;86.20;;;;;;5004009;28;87143;-37
2023/01/31 13:22:27;;;;;;;;;;;-0.30;86.60;;;;;;5007245;28;87537;-38
2023/01/31 13:24:58;;;;;;;;;;;-0.30;86.60;;;;;;5004027;28;87334;-37
2023/01/31 13:27:31;;;;;;;;;;;-0.30;86.40;;;;;;5004382;28;87512;-38
2023/01/31 13:29:59;;;;;;;;;;;-0.30;86.40;;;;;;5003086;28;88989;-38
2023/01/31 13:32:31;;;;;;;;;;;-0.30;86.40;;;;;;5003782;28;87046;-38
2023/01/31 13:34:59;;;;;;;;;;;-0.30;86.30;;;;;;5003851;28;87486;-38
2023/01/31 13:37:29;;;;;;;;;;;-0.30;86.30;;;;;;5003705;28;88055;-38
2023/01/31 13:40:00;;;;;;;;;;;-0.30;86.30;;;;;;5003741;28;87206;-37
2023/01/31 13:42:26;;;;;;;;;;;-0.30;86.30;;;;;;5006541;28;86990;-37
2023/01/31 13:44:53;;;;;;;;;;;-0.30;86.30;;;;;;5003075;28;88015;-38
2023/01/31 13:47:27;;;;;;;;;;;-0.20;86.70;;;;;;5004340;28;87932;-37
2023/01/31 13:49:53;;;;;;;;;;;-0.20;87.40;;;;;;5003236;28;88214;-42
2023/01/31 13:52:30;;;;;;;;;;;-0.10;87.50;;;;;;5003563;28;86980;-42
2023/01/31 13:55:01;;;;;;;;;;;-0.10;87.50;;;;;;5003074;28;87882;-39
2023/01/31 13:57:31;;;;;;;;;;;0.00;87.40;;;;;;5003051;28;89533;-46
2023/01/31 14:00:04;;;;;;;;;;;0.00;87.90;;;;;;5003553;28;87150;-40
2023/01/31 14:02:29;;;;;;;;;;;0.10;88.10;;;;;;5003137;28;87121;-41
2023/01/31 14:05:02;;;;;;;;;;;0.10;88.20;;;;;;5005445;28;88265;-40
2023/01/31 14:07:28;;;;;;;;;;;0.20;87.90;;;;;;5003718;28;87405;-42
2023/01/31 14:09:56;;;;;;;;;;;0.30;88.20;;;;;;5002947;28;87972;-41
2023/01/31 14:12:22;;;;;;;;;;;0.30;88.30;;;;;;5004102;28;86387;-39
2023/01/31 14:14:50;;;;;;;;;;;0.40;87.90;;;;;;5003555;28;87180;-39
2023/01/31 14:17:28;;;;;;;;;;;0.40;88.30;;;;;;5002797;28;88033;-39
2023/01/31 14:19:56;;;;;;;;;;;0.40;83.60;;;;;;5002753;28;88064;-40
2023/01/31 14:22:22;;;;;;;;;;;;;;;;;;5003213;28;88329;-38
2023/01/31 14:25:00;;;;;;;;;;;;;;;;;;5003172;28;87720;-39
2023/01/31 14:27:26;;;;;;;;;;;;;;;;;;5006388;28;87146;-41
2023/01/31 14:29:52;;;;;;;;;;;;;;;;;;5003117;28;87975;-39